METAR Data
IDs: Format: Raw Decoded Include TAF

Data at: 0154 UTC 01 Feb 2023

KBWI 010149Z COR VRB03KT 5SM -DZ BR BKN014 OVC023 03/01 A3023 RMK AO2 DZB10 P0001
KBWI 010054Z VRB04KT 8SM FEW012 OVC018 03/01 A3023 RMK AO2 SLP236 T00280006
KBWI 312354Z 11006KT 7SM BKN014 OVC020 03/01 A3021 RMK AO2 SLP229 60000 T00330011 10044 20033 53005
KBWI 312341Z 12004KT 7SM SCT014 BKN024 OVC035 03/01 A3020 RMK AO2 T00330011
KBWI 312319Z 00000KT 7SM FEW015 SCT024 OVC036 03/M01 A3020 RMK AO2 T00331006
KBWI 312254Z VRB04KT 7SM FEW015 BKN024 OVC037 03/00 A3020 RMK AO2 RAE22 SLP228 P0000 T00330000
KBWI 312214Z 00000KT 6SM -RA SCT015 BKN024 OVC037 03/01 A3019 RMK AO2 P0000 T00330006
KBWI 312154Z 02005KT 6SM -RA SCT022 BKN036 OVC050 04/00 A3020 RMK AO2 RAB47 SLP226 P0000 T00390000
KBWI 312054Z 01006KT 7SM FEW028 BKN037 OVC050 04/M01 A3019 RMK AO2 SLP225 60000 T00441006 55007
KBWI 311954Z 02005KT 7SM FEW023 BKN034 OVC050 04/00 A3019 RMK AO2 RAE25 SLP224 P0000 T00390000
KBWI 311854Z VRB04KT 7SM -RA SCT021 BKN034 OVC050 04/00 A3021 RMK AO2 RAE1756B53 SLP229 P0000 T00390000
KBWI 311754Z VRB04KT 6SM -RA FEW020 OVC041 04/01 A3022 RMK AO2 RAE20B45 SLP232 P0000 60009 T00440006 10083 20039 58004
KBWI 311654Z 36005KT 6SM -RA FEW021 OVC043 04/01 A3023 RMK AO2 SLP238 P0001 T00440011
KBWI 311554Z 01004KT 7SM -RA FEW025 OVC041 04/02 A3025 RMK AO2 SLP244 P0003 T00440022
KBWI 311454Z 01004KT 7SM -RA OVC041 05/02 A3023 RMK AO2 SLP236 P0003 60005 T00500022 51024
KBWI 311354Z 01007KT 6SM -RA BKN041 OVC060 05/02 A3022 RMK AO2 SLP234 P0002 T00500017
KBWI 311254Z 36010KT 7SM -RA BKN042 OVC060 07/02 A3020 RMK AO2 RAB20 SLP228 P0000 T00670017
KBWI 311154Z 33009G19KT 10SM BKN038 OVC060 08/02 A3016 RMK AO2 SLP212 T00830022 10089 20044 51035
KBWI 311054Z 33006KT 10SM FEW038 OVC060 09/05 A3012 RMK AO2 SLP200 T00890050
KBWI 310954Z VRB03KT 10SM BKN065 OVC110 07/05 A3009 RMK AO2 SLP190 T00720050
KBWI 310854Z 00000KT 10SM SCT070 BKN110 07/05 A3005 RMK AO2 SLP177 T00670050 56005
KBWI 310754Z 31006KT 10SM BKN065 06/04 A3006 RMK AO2 SLP178 T00610044
KBWI 310654Z 22004KT 10SM FEW070 08/06 A3004 RMK AO2 SLP171 T00830056
KBWI 310554Z 00000KT 10SM SCT070 06/03 A3007 RMK AO2 SLP181 T00560033 10106 20039 58008
KBWI 310454Z 29003KT 10SM SCT075 04/02 A3008 RMK AO2 SLP186 T00440022 401500033
KBWI 310354Z 00000KT 10SM FEW055 SCT075 08/04 A3009 RMK AO2 SLP191 T00780039
KBWI 310254Z 00000KT 10SM FEW055 SCT080 08/04 A3009 RMK AO2 SLP190 T00830039 55003
KBWI 310154Z 00000KT 10SM FEW080 07/04 A3009 RMK AO2 SLP189 T00720039
KBWI 310054Z 20003KT 10SM FEW070 FEW095 11/04 A3010 RMK AO2 SLP192 T01060039
KBWI 302354Z 16005KT 10SM FEW095 11/04 A3010 RMK AO2 SLP192 T01060039 10150 20078 50008
KBWI 302254Z 14004KT 10SM FEW085 FEW120 11/04 A3011 RMK AO2 SLP195 T01110039
KBWI 302154Z 13004KT 10SM FEW046 FEW120 13/04 A3009 RMK AO2 SLP190 T01330039
KBWI 302054Z 13007KT 10SM FEW048 FEW120 14/04 A3008 RMK AO2 SLP185 T01390039 55023
KBWI 301954Z 12009KT 10SM FEW050 FEW140 15/04 A3006 RMK AO2 SLP181 T01500044
KBWI 301854Z 17004KT 10SM FEW050 SCT160 14/04 A3009 RMK AO2 SLP191 T01390044
KBWI 301754Z 21003KT 10SM BKN048 BKN160 13/04 A3014 RMK AO2 SLP208 T01280044 10128 20039 58022
KBWI 301654Z 16003KT 10SM BKN048 OVC160 12/05 A3017 RMK AO2 SLP216 T01170050
KBWI 301554Z 00000KT 7SM BKN044 BKN160 11/06 A3020 RMK AO2 SLP228 T01060056
KBWI 301454Z 00000KT 5SM BR BKN039 OVC160 08/06 A3021 RMK AO2 SLP230 T00830061 50011